Latest Coastal Weather Observations for Kalumburu

IDW60701

Issued at 1:33 am WST Thursday 3 September 2026 (issued every 10 minutes, with the page automatically refreshed every 10 minutes)

About coastal observations | Map of coastal stations | Coastal observations for WA | Marine services | Other Formats
Station Details ID: 001019 Name: KALUMBURU Lat: -14.30 Lon: 126.65 Height: 23.0 m
Data from the previous 72 hours. | See also: Recent months at Kalumburu
Date/Time
WST
Wind Sea
Height
m
Swell Vis
km
Cloud Weather Temp
°C
Press
MSL
hPa
Rain since
9am
mm
Dir  Spd
kts
Gust
kts
Height
m
Period
s
Dir
03/01:30am CALM 0 0 - - - - - - - 18.6 1016.1 0.0
03/01:00am CALM 0 0 - - - - - - - 20.1 1016.1 0.0
03/12:30am CALM 0 0 - - - - - - - 19.6 1016.3 0.0
03/12:00am CALM 0 0 - - - - - - - 20.2 1016.5 0.0
 
Date/Time
WST
Wind Sea
Height
m
Swell Vis
km
Cloud Weather Temp
°C
Press
MSL
hPa
Rain since
9am
mm
Dir  Spd
kts
Gust
kts
Height
m
Period
s
Dir
02/11:30pm CALM 0 0 - - - - - - - 19.9 1016.6 0.0
02/11:00pm CALM 0 0 - - - - - - - 20.1 1016.7 0.0
02/10:30pm N 3 4 - - - - - - - 21.0 1016.7 0.0
02/10:00pm CALM 0 0 - - - - - - - 21.0 1016.5 0.0
02/09:30pm CALM 0 0 - - - - - - - 22.0 1016.6 0.0
02/09:00pm CALM 0 0 - - - - - - - 22.5 1016.8 0.0
02/08:30pm NE 1 5 - - - - - - - 23.4 1016.9 0.0
02/08:00pm NNE 3 5 - - - - - - - 24.5 1016.7 0.0
02/07:30pm NNE 5 8 - - - - - - - 25.5 1016.4 0.0
02/07:00pm N 6 8 - - - - - - - 26.0 1016.1 0.0
02/06:30pm N 5 7 - - - - - - - 26.6 1015.6 0.0
02/06:00pm NNE 6 9 - - - - - - - 27.5 1015.2 0.0
02/05:30pm N 6 8 - - - - - - - 27.5 1014.7 0.0
02/05:00pm NNW 8 12 - - - - - - - 28.2 1014.3 0.0
02/04:30pm N 8 11 - - - - - - - 28.1 1014.1 0.0
02/04:00pm N 9 12 - - - - - - - 28.7 1013.7 0.0
02/03:30pm N 11 16 - - - - - - - 29.5 1013.6 0.0
02/03:00pm NNW 8 11 - - - - - - - 30.6 1013.3 0.0
02/02:30pm N 11 18 - - - - - - - 30.0 1013.6 0.0
02/02:00pm N 13 19 - - - - - - - 30.9 1013.6 0.0
02/01:30pm N 14 19 - - - - - - - 31.8 1013.9 0.0
02/01:00pm ESE 8 13 - - - - - - - 35.8 1014.1 0.0
02/12:30pm E 7 13 - - - - - - - 34.1 1014.5 0.0
02/12:00pm E 8 13 - - - - - - - 34.3 1015.0 0.0
02/11:30am SSE 6 10 - - - - - - - 32.8 1015.6 0.0
02/11:00am ENE 5 8 - - - - - - - 33.7 1016.3 0.0
02/10:30am SE 8 17 - - - - - - - 33.3 1016.8 0.0
02/10:00am ESE 7 13 - - - - - - - 33.0 1017.3 0.0
02/09:30am SSE 6 10 - - - - - - - 32.2 1017.6 0.0
02/09:00am SSW 5 10 - - - - - - - 30.6 1018.0 0.0
02/08:30am S 6 9 - - - - - - - 28.2 1018.1 0.0
02/08:00am SSW 4 7 - - - - - - - 26.9 1018.0 0.0
02/07:30am SSW 5 7 - - - - - - - 24.9 1017.9 0.0
02/07:00am SSW 4 6 - - - - - - - 23.3 1017.7 0.0
02/06:30am SSW 3 5 - - - - - - - 21.7 1017.5 0.0
02/06:00am S 4 7 - - - - - - - 20.7 1017.2 0.0
02/05:30am S 4 8 - - - - - - - 19.9 1016.9 0.0
02/05:00am SW 1 3 - - - - - - - 18.6 1016.8 0.0
02/04:30am CALM 0 0 - - - - - - - 17.6 1016.5 0.0
02/04:00am CALM 0 0 - - - - - - - 18.6 1016.4 0.0
02/03:30am CALM 0 0 - - - - - - - 18.6 1016.2 0.0
02/03:00am CALM 0 0 - - - - - - - 18.5 1016.1 0.0
02/02:30am CALM 0 0 - - - - - - - 19.3 1016.1 0.0
02/02:00am CALM 0 0 - - - - - - - 19.6 1016.2 0.0
02/01:30am CALM 0 0 - - - - - - - 19.3 1016.4 0.0
02/01:00am CALM 0 0 - - - - - - - 19.4 1016.6 0.0
02/12:30am CALM 0 0 - - - - - - - 20.0 1016.7 0.0
02/12:00am CALM 0 0 - - - - - - - 20.3 1016.8 0.0
 
Date/Time
WST
Wind Sea
Height
m
Swell Vis
km
Cloud Weather Temp
°C
Press
MSL
hPa
Rain since
9am
mm
Dir  Spd
kts
Gust
kts
Height
m
Period
s
Dir
01/11:30pm CALM 0 0 - - - - - - - 20.3 1017.0 0.0
01/11:00pm CALM 0 0 - - - - - - - 20.5 1017.1 0.0
01/10:30pm CALM 0 0 - - - - - - - 20.9 1017.0 0.0
01/10:00pm N 2 4 - - - - - - - 22.1 1017.0 0.0
01/09:30pm CALM 0 0 - - - - - - - 22.3 1016.9 0.0
01/09:00pm CALM 0 0 - - - - - - - 22.9 1016.9 0.0
01/08:30pm N 3 4 - - - - - - - 24.4 1016.7 0.0
01/08:00pm NNE 4 5 - - - - - - - 24.9 1016.7 0.0
01/07:30pm N 5 7 - - - - - - - 25.8 1016.4 0.0
01/07:00pm N 5 7 - - - - - - - 26.3 1016.1 0.0
01/06:30pm N 7 11 - - - - - - - 27.0 1015.6 0.0
01/06:00pm N 9 13 - - - - - - - 27.5 1015.1 0.0
01/05:30pm N 8 11 - - - - - - - 28.3 1014.7 0.0
01/05:00pm NNE 10 15 - - - - - - - 29.4 1014.2 0.0
01/04:30pm N 10 15 - - - - - - - 30.5 1013.8 0.0
01/04:00pm NNW 11 16 - - - - - - - 30.3 1013.5 0.0
01/03:30pm N 13 18 - - - - - - - 30.9 1013.4 0.0
01/03:00pm NNW 9 13 - - - - - - - 32.2 1013.4 0.0
01/02:30pm NNW 10 15 - - - - - - - 32.8 1013.4 0.0
01/02:00pm NNW 9 14 - - - - - - - 33.2 1013.7 0.0
01/01:30pm NNW 10 15 - - - - - - - 32.7 1014.0 0.0
01/01:00pm NNW 10 17 - - - - - - - 32.8 1014.6 0.0
01/12:30pm N 10 14 - - - - - - - 32.9 1015.0 0.0
01/12:00pm ENE 7 12 - - - - - - - 33.7 1015.6 0.0
01/11:30am NE 10 16 - - - - - - - 34.8 1016.2 0.0
01/11:00am ENE 9 14 - - - - - - - 34.1 1016.8 0.0
01/10:30am E 8 15 - - - - - - - 33.7 1017.3 0.0
01/10:00am E 11 19 - - - - - - - 32.5 1018.0 0.0
01/09:30am SE 8 14 - - - - - - - 32.3 1018.5 0.0
01/09:00am WSW 3 7 - - - - - - - 30.4 1018.7 -
01/08:30am W 3 5 - - - - - - - 28.1 1018.9 -
01/08:00am CALM 0 3 - - - - - - - 26.5 1019.0 -
01/07:30am CALM 0 0 - - - - - - - 24.2 1018.8 -
01/07:00am CALM 0 0 - - - - - - - 21.9 1018.6 -
01/06:30am CALM 0 0 - - - - - - - 18.5 1018.3 -
01/06:00am CALM 0 0 - - - - - - - 16.8 1018.1 -
01/05:30am CALM 0 0 - - - - - - - 16.9 1017.8 -
01/05:00am CALM 0 0 - - - - - - - 17.0 1017.4 -
01/04:30am CALM 0 0 - - - - - - - 17.1 1017.0 -
01/04:00am CALM 0 0 - - - - - - - 17.4 1016.9 -
01/03:30am CALM 0 0 - - - - - - - 17.4 1016.7 -
01/03:00am CALM 0 0 - - - - - - - 17.5 1016.7 -
01/02:30am CALM 0 0 - - - - - - - 18.2 1016.8 -
01/02:00am CALM 0 0 - - - - - - - 18.0 1016.8 -
01/01:30am CALM 0 0 - - - - - - - 18.5 1016.7 -
01/01:00am CALM 0 0 - - - - - - - 18.3 1016.8 -
01/12:30am CALM 0 0 - - - - - - - 18.6 1017.1 -
01/12:00am CALM 0 0 - - - - - - - 19.2 1017.5 -
 
Date/Time
WST
Wind Sea
Height
m
Swell Vis
km
Cloud Weather Temp
°C
Press
MSL
hPa
Rain since
9am
mm
Dir  Spd
kts
Gust
kts
Height
m
Period
s
Dir
31/11:30pm NNE 1 3 - - - - - - - 19.2 1017.7 -
31/11:00pm CALM 0 0 - - - - - - - 19.7 1017.8 -
31/10:00pm CALM 0 0 - - - - - - - 20.7 1017.6 0.0
31/09:30pm CALM 0 0 - - - - - - - 21.4 1017.5 0.0
31/09:00pm NNE 1 3 - - - - - - - 21.8 1017.5 0.0
31/08:30pm CALM 0 0 - - - - - - - 23.2 1017.7 0.0
31/08:00pm N 3 4 - - - - - - - 24.6 1017.5 0.0
31/07:30pm NNW 4 6 - - - - - - - 26.0 1017.2 0.0
31/07:00pm NW 7 10 - - - - - - - 26.4 1016.6 0.0
31/06:30pm NW 5 8 - - - - - - - 26.6 1016.0 0.0
31/06:00pm NW 4 7 - - - - - - - 26.8 1015.4 0.0
31/05:30pm N 6 9 - - - - - - - 27.5 1015.1 0.0
31/05:00pm N 7 11 - - - - - - - 28.9 1014.8 0.0
31/04:30pm NNW 8 14 - - - - - - - 30.2 1014.5 0.0
31/04:00pm N 10 15 - - - - - - - 31.0 1014.4 0.0
31/03:30pm N 9 13 - - - - - - - 31.9 1014.4 0.0
31/03:00pm N 9 13 - - - - - - - 32.6 1014.5 0.0
31/02:30pm N 11 16 - - - - - - - 32.3 1014.5 0.0
31/02:00pm N 13 18 - - - - - - - 32.4 1014.7 0.0
31/01:30pm N 10 14 - - - - - - - 33.0 1015.0 0.0
31/01:00pm N 12 16 - - - - - - - 33.0 1015.4 0.0
31/12:30pm NE 7 14 - - - - - - - 35.3 1015.7 0.0
31/12:00pm NNE 10 16 - - - - - - - 34.4 1016.2 0.0
31/11:30am ENE 8 14 - - - - - - - 33.9 1016.7 0.0
31/11:00am ENE 7 15 - - - - - - - 33.7 1017.3 0.0
31/10:30am ENE 7 12 - - - - - - - 33.3 1017.8 0.0
31/10:00am ESE 9 16 - - - - - - - 32.4 1018.2 0.0
31/09:30am SE 6 12 - - - - - - - 31.5 1018.6 0.0
31/09:00am SSW 4 10 - - - - - - - 30.5 1018.8 0.0
31/08:30am WSW 3 6 - - - - - - - 28.6 1018.8 0.0
31/08:00am SSW 4 6 - - - - - - - 27.3 1018.8 0.0
31/07:30am S 3 7 - - - - - - - 24.9 1018.9 0.0
31/07:00am CALM 0 0 - - - - - - - 22.7 1018.8 0.0
31/06:30am CALM 0 0 - - - - - - - 19.8 1018.4 0.0
31/06:00am CALM 0 0 - - - - - - - 18.4 1017.8 0.0
31/05:30am CALM 0 0 - - - - - - - 18.6 1017.4 0.0
31/05:00am CALM 0 0 - - - - - - - 18.9 1016.9 0.0
31/04:30am SSW 1 3 - - - - - - - 19.3 1016.8 0.0
31/04:00am CALM 0 5 - - - - - - - 19.8 1016.5 0.0
31/03:30am CALM 0 0 - - - - - - - 19.8 1016.5 0.0
31/03:00am CALM 0 0 - - - - - - - 19.7 1016.3 0.0
31/02:30am CALM 0 0 - - - - - - - 20.3 1016.3 0.0
31/02:00am CALM 0 0 - - - - - - - 19.3 1016.5 0.0

Other formats

Comma delimited format used in spreadsheet applications
http://www.bom.gov.au/fwo/IDW60701/IDW60701.94100.axf

JavaScript Object Notation format (JSON) in row-major order
http://www.bom.gov.au/fwo/IDW60701/IDW60701.94100.json

Data quality

Most of these data are generated automatically and are frequently updated. Quality checks on data are not normally performed. It is possible for incorrect values to appear. Refer to information at About Latest Weather Observations and please check the disclaimer before using these data.